Floreffe, Belgium
Current Conditions -  °F | °C
As of 1:20 PM on Thursday 29 Jan 2015 (Local Time) from EBCI Reporting Station
Light Rain Light Rain  
Wind Chill: 28°   Ceiling: 800
Heat Index: 37°   Visibility: 4mi
Dew Point: 36°   Wind: 16mph
Humidity: 93%   Direction: 210°SSW
Pressure: 29.12"   Gusts: NA
Location:  50.43°N, 4.76°E
Report Text: EBCI 291220Z 21014KT 7000 -RA BKN008 03/02 Q0986 NOSIG
Loading
Personal Weather Stations






























Interactive Weather Map New forecast layout! Learn more

10-Day Weather Forecast

Advertisements
Track Severe Weather on mobile